Capitol Logistics 989

Operating for DHL



EDDF
Frankfurt Rhein-Main
Frankfurt, DE
EGNX
East Midlands Airport
Derby, GB

Route Details

Aircraft Information
Group: European Fleet
Types: A30F,A31F,B738
Route Data
Demand: V
Distance: 407nm
Duration: 1h 50m
Recm'd Route: OBOK3K OBOKA Z29 TORNU BREDA GALSO Q63 ERING L179 LAM L610 HEMEL HEME1E
Origin Wx: EDDF 270520Z 21009KT 9999 FEW018 SCT040 16/11 Q1020 NOSIG
Dest. Wx: EGNX 270520Z 26011KT CAVOK 09/04 Q1023
Notes:

Financial History
Total Freight: 214,695lbs
Average Load: 71,565lbs/flt
Fuel Used: 52,227lbs
Avg. Fuel Used: 17,409lbs/flt
Fuel Expense: $22,588
Avg. Fuel Expense: $7,529
Avg. Fuel Cost: $0.43/lbs
Total Gross Income: $480,405
Pilot Pay: $777
Total Expenses: $60,452
Total Revenue: $396,303
Average Revenue: $160,134.86